Sedna Desgagnes — CYQE — position and weather

sailwx.info

Track history (hours):
 
Tides and Currents Weather Stations Pressure Air Temp Water Temp Dewpoint Dewpoint Depression Visibility Wind Speed Wind Dir Waves Ship Positions

Sedna Desgagnes

Last reported at 2016-Aug-15 22:31 UTC. Time now 2016-Aug-26 03:15 UTC.
Position N 49°54' W 059°17'.
Warning: this ship's position is 10 days out of date.

Length 139 m; draft 7.8 m.

Type: Ship. MMSI: 316015251.

Date/timePositionNaut miles runAvg speedWind from/ knotsBaromVisibWave heightAir tempDewpointWater temp
2016-Aug-15 22:31N 49°54' W 059°17'  
2016-Aug-12 21:14N 46°16' W 072°38'1014.5
2016-Aug-12 20:33N 46°12' W 072°51'1413.8
2016-Aug-12 19:34N 46°03' W 073°07'1212.2
2016-Aug-12 18:33N 45°53' W 073°15'1414.3
2016-Aug-12 17:34N 45°41' W 073°27'1110.2
2016-Aug-12 16:31N 45°31' W 073°31'5 2.7
2016-Aug-12 14:33N 45°26' W 073°30'3 3.0
2016-Aug-12 13:33N 45°24' W 073°34'1 1.3
2016-Aug-12 12:33N 45°24' W 073°36'3 3.4
2016-Aug-12 11:33N 45°25' W 073°41'9 8.9
2016-Aug-12 10:33N 45°21' W 073°52'5 4.9
2016-Aug-12 09:33N 45°24' W 073°47'6 6.1
2016-Aug-12 08:33N 45°24' W 073°38'2 1.8
2016-Aug-12 07:29N 45°24' W 073°35'0 0.0
2016-Aug-12 06:29N 45°24' W 073°35'0 0.0
2016-Aug-12 05:29N 45°24' W 073°35'0 0.0
2016-Aug-12 04:05N 45°24' W 073°35'0 0.0
2016-Aug-12 03:23N 45°24' W 073°35'0 0.0
2016-Aug-12 02:23N 45°24' W 073°35'0 0.0
2016-Aug-12 01:32N 45°24' W 073°35'0 0.0
2016-Aug-12 00:29N 45°24' W 073°35'0 0.0
2016-Aug-11 23:23N 45°24' W 073°35'0 0.0
2016-Aug-11 22:29N 45°24' W 073°35'0 0.0
2016-Aug-11 21:29N 45°24' W 073°35'0 0.0
2016-Aug-11 20:29N 45°24' W 073°35'0 0.0
2016-Aug-11 19:29N 45°24' W 073°35'0 0.0
2016-Aug-11 18:29N 45°24' W 073°35'0 0.0
2016-Aug-11 17:29N 45°24' W 073°35'0 0.0
2016-Aug-11 16:17N 45°24' W 073°35'0 0.0
2016-Aug-11 15:23N 45°24' W 073°35'0 0.0
2016-Aug-11 14:29N 45°24' W 073°35'0 0.0
2016-Aug-11 13:23N 45°24' W 073°35'0 0.0
2016-Aug-11 12:29N 45°24' W 073°35'0 0.0
2016-Aug-11 11:11N 45°24' W 073°35'0 0.0
2016-Aug-11 10:23N 45°24' W 073°35'0 0.0
2016-Aug-11 09:29N 45°24' W 073°35'0 0.0
2016-Aug-11 08:29N 45°24' W 073°35'0 0.0
2016-Aug-11 07:29N 45°24' W 073°35'0 0.0
2016-Aug-11 06:23N 45°24' W 073°35'0 0.0
2016-Aug-11 05:29N 45°24' W 073°35'0 0.0
2016-Aug-11 04:23N 45°24' W 073°35'0 0.0
2016-Aug-11 03:29N 45°24' W 073°35'0 0.0
2016-Aug-11 02:29N 45°24' W 073°35'0 0.0
2016-Aug-11 01:17N 45°24' W 073°35'0 0.0
2016-Aug-11 00:17N 45°24' W 073°35'0 0.0
2016-Aug-10 23:05N 45°24' W 073°35'0 0.0
2016-Aug-10 22:05N 45°24' W 073°35'0 0.0
2016-Aug-10 21:23N 45°24' W 073°35'0 0.0
2016-Aug-10 20:32N 45°24' W 073°35'0 0.0
2016-Aug-10 19:32N 45°24' W 073°35'0 0.0
2016-Aug-10 18:32N 45°24' W 073°35'0 0.0
2016-Aug-10 17:32N 45°24' W 073°35'0 0.0
2016-Aug-10 16:20N 45°24' W 073°35'0 0.0
2016-Aug-10 15:26N 45°24' W 073°35'0 0.0
2016-Aug-10 14:08N 45°24' W 073°35'0 0.0
2016-Aug-10 13:32N 45°24' W 073°35'0 0.0
2016-Aug-10 12:32N 45°24' W 073°35'0 0.0
2016-Aug-10 11:32N 45°24' W 073°35'0 0.0
2016-Aug-10 10:32N 45°24' W 073°35'0 0.0
2016-Aug-10 09:32N 45°24' W 073°35'0 0.0
2016-Aug-10 08:32N 45°24' W 073°35'0 0.0
2016-Aug-10 07:32N 45°24' W 073°35'0 0.0
2016-Aug-10 06:32N 45°24' W 073°35'0 0.0
2016-Aug-10 05:32N 45°24' W 073°35'0 0.0
2016-Aug-10 04:29N 45°24' W 073°35'0 0.0
2016-Aug-10 03:14N 45°24' W 073°35'0 0.0
2016-Aug-10 02:32N 45°24' W 073°35'0 0.0
2016-Aug-10 01:32N 45°24' W 073°35'0 0.0
2016-Aug-10 00:32N 45°24' W 073°35'0 0.0
2016-Aug-09 23:32N 45°24' W 073°35'0 0.0
2016-Aug-09 22:32N 45°24' W 073°35'0 0.0
2016-Aug-09 21:32N 45°24' W 073°35'0 0.0
2016-Aug-09 20:32N 45°24' W 073°35'0 0.0
2016-Aug-09 19:32N 45°24' W 073°35'0 0.0
2016-Aug-09 18:32N 45°24' W 073°35'0 0.0
2016-Aug-09 17:32N 45°24' W 073°35'0 0.0
2016-Aug-09 16:26N 45°24' W 073°35'0 0.0
2016-Aug-09 15:32N 45°24' W 073°35'0 0.0
2016-Aug-09 14:32N 45°24' W 073°35'0 0.0
2016-Aug-09 13:32N 45°24' W 073°35'0 0.0
2016-Aug-09 12:32N 45°24' W 073°35'0 0.0
2016-Aug-09 11:32N 45°24' W 073°35'0 0.0
2016-Aug-09 10:32N 45°24' W 073°35'0 0.0
2016-Aug-09 09:32N 45°24' W 073°35'0 0.0
2016-Aug-09 08:23N 45°24' W 073°35'0 0.0
2016-Aug-09 07:29N 45°24' W 073°35'0 0.0
2016-Aug-09 04:29N 45°24' W 073°35'0 0.0
2016-Aug-09 03:29N 45°24' W 073°35'0 0.0
2016-Aug-09 02:32N 45°24' W 073°35'0 0.0
2016-Aug-09 01:32N 45°24' W 073°35'0 0.0
2016-Aug-09 00:32N 45°24' W 073°35'0 0.0
2016-Aug-08 23:32N 45°24' W 073°35'0 0.0
2016-Aug-08 22:26N 45°24' W 073°35'0 0.0
2016-Aug-08 21:26N 45°24' W 073°35'0 0.0
2016-Aug-08 20:32N 45°24' W 073°35'0 0.0
2016-Aug-08 19:32N 45°24' W 073°35'0 0.0
2016-Aug-08 18:32N 45°24' W 073°35'0 0.0
2016-Aug-08 17:14N 45°24' W 073°35'0 0.0
2016-Aug-08 16:26N 45°24' W 073°35'0 0.0
2016-Aug-08 15:32N 45°24' W 073°35'0 0.0
2016-Aug-08 14:32N 45°24' W 073°35'0 0.0
2016-Aug-08 13:20N 45°24' W 073°35'0 0.0
2016-Aug-08 12:20N 45°24' W 073°35'0 0.0
2016-Aug-08 11:32N 45°24' W 073°35'0 0.0
2016-Aug-08 10:32N 45°24' W 073°35'0 0.0
2016-Aug-08 09:32N 45°24' W 073°35'0 0.0
2016-Aug-08 08:32N 45°24' W 073°35'0 0.0
2016-Aug-08 07:32N 45°24' W 073°35'0 0.0
2016-Aug-08 06:32N 45°24' W 073°35'0 0.0
2016-Aug-08 05:32N 45°24' W 073°35'0 0.0
2016-Aug-08 04:32N 45°24' W 073°35'0 0.0
2016-Aug-08 03:26N 45°24' W 073°35'0 0.0
2016-Aug-08 02:32N 45°24' W 073°35'0 0.0
2016-Aug-08 01:32N 45°24' W 073°35'0 0.0
2016-Aug-08 00:23N 45°24' W 073°35'0 0.0
2016-Aug-07 23:17N 45°24' W 073°35'0 0.0
2016-Aug-07 22:29N 45°24' W 073°35'0 0.0
2016-Aug-07 21:29N 45°24' W 073°35'0 0.0
2016-Aug-07 20:29N 45°24' W 073°35'0 0.0
2016-Aug-07 19:29N 45°24' W 073°35'0 0.0
2016-Aug-07 18:29N 45°24' W 073°35'0 0.0
2016-Aug-07 17:23N 45°24' W 073°35'0 0.0
2016-Aug-07 16:29N 45°24' W 073°35'0 0.0
2016-Aug-07 15:29N 45°24' W 073°35'0 0.0
2016-Aug-07 14:33N 45°24' W 073°35'1 0.9
2016-Aug-07 13:34N 45°24' W 073°34'3 3.2
2016-Aug-07 12:33N 45°26' W 073°30'4 3.6
2016-Aug-07 11:32N 45°30' W 073°31'5 5.2
2016-Aug-07 10:34N 45°35' W 073°30'10 9.7
2016-Aug-07 09:33N 45°44' W 073°25'1010.5
2016-Aug-07 08:33N 45°52' W 073°16'1111.1
2016-Aug-07 07:34N 46°02' W 073°10'1010.3
2016-Aug-07 06:33N 46°08' W 072°57'  
Track history (hours):
 
Tides and Currents Weather Stations Pressure Air Temp Water Temp Dewpoint Dewpoint Depression Visibility Wind Speed Wind Dir Waves Ship Positions

Sedna Desgagnes

Last reported at 2016-Aug-15 22:31 UTC. Time now 2016-Aug-26 03:15 UTC.
Position N 49°54' W 059°17'.
Warning: this ship's position is 10 days out of date.

Length 139 m; draft 7.8 m.

Type: Ship. MMSI: 316015251.

Date/timePositionNaut miles runAvg speedWind from/ knotsBaromVisibWave heightAir tempDewpointWater temp
2016-Aug-15 22:31N 49°54' W 059°17'  
2016-Aug-12 21:14N 46°16' W 072°38'1014.5
2016-Aug-12 20:33N 46°12' W 072°51'1413.8
2016-Aug-12 19:34N 46°03' W 073°07'1212.2
2016-Aug-12 18:33N 45°53' W 073°15'1414.3
2016-Aug-12 17:34N 45°41' W 073°27'1110.2
2016-Aug-12 16:31N 45°31' W 073°31'5 2.7
2016-Aug-12 14:33N 45°26' W 073°30'3 3.0
2016-Aug-12 13:33N 45°24' W 073°34'1 1.3
2016-Aug-12 12:33N 45°24' W 073°36'3 3.4
2016-Aug-12 11:33N 45°25' W 073°41'9 8.9
2016-Aug-12 10:33N 45°21' W 073°52'5 4.9
2016-Aug-12 09:33N 45°24' W 073°47'6 6.1
2016-Aug-12 08:33N 45°24' W 073°38'2 1.8
2016-Aug-12 07:29N 45°24' W 073°35'0 0.0
2016-Aug-12 06:29N 45°24' W 073°35'0 0.0
2016-Aug-12 05:29N 45°24' W 073°35'0 0.0
2016-Aug-12 04:05N 45°24' W 073°35'0 0.0
2016-Aug-12 03:23N 45°24' W 073°35'0 0.0
2016-Aug-12 02:23N 45°24' W 073°35'0 0.0
2016-Aug-12 01:32N 45°24' W 073°35'0 0.0
2016-Aug-12 00:29N 45°24' W 073°35'0 0.0
2016-Aug-11 23:23N 45°24' W 073°35'0 0.0
2016-Aug-11 22:29N 45°24' W 073°35'0 0.0
2016-Aug-11 21:29N 45°24' W 073°35'0 0.0
2016-Aug-11 20:29N 45°24' W 073°35'0 0.0
2016-Aug-11 19:29N 45°24' W 073°35'0 0.0
2016-Aug-11 18:29N 45°24' W 073°35'0 0.0
2016-Aug-11 17:29N 45°24' W 073°35'0 0.0
2016-Aug-11 16:17N 45°24' W 073°35'0 0.0
2016-Aug-11 15:23N 45°24' W 073°35'0 0.0
2016-Aug-11 14:29N 45°24' W 073°35'0 0.0
2016-Aug-11 13:23N 45°24' W 073°35'0 0.0
2016-Aug-11 12:29N 45°24' W 073°35'0 0.0
2016-Aug-11 11:11N 45°24' W 073°35'0 0.0
2016-Aug-11 10:23N 45°24' W 073°35'0 0.0
2016-Aug-11 09:29N 45°24' W 073°35'0 0.0
2016-Aug-11 08:29N 45°24' W 073°35'0 0.0
2016-Aug-11 07:29N 45°24' W 073°35'0 0.0
2016-Aug-11 06:23N 45°24' W 073°35'0 0.0
2016-Aug-11 05:29N 45°24' W 073°35'0 0.0
2016-Aug-11 04:23N 45°24' W 073°35'0 0.0
2016-Aug-11 03:29N 45°24' W 073°35'0 0.0
2016-Aug-11 02:29N 45°24' W 073°35'0 0.0
2016-Aug-11 01:17N 45°24' W 073°35'0 0.0
2016-Aug-11 00:17N 45°24' W 073°35'0 0.0
2016-Aug-10 23:05N 45°24' W 073°35'0 0.0
2016-Aug-10 22:05N 45°24' W 073°35'0 0.0
2016-Aug-10 21:23N 45°24' W 073°35'0 0.0
2016-Aug-10 20:32N 45°24' W 073°35'0 0.0
2016-Aug-10 19:32N 45°24' W 073°35'0 0.0
2016-Aug-10 18:32N 45°24' W 073°35'0 0.0
2016-Aug-10 17:32N 45°24' W 073°35'0 0.0
2016-Aug-10 16:20N 45°24' W 073°35'0 0.0
2016-Aug-10 15:26N 45°24' W 073°35'0 0.0
2016-Aug-10 14:08N 45°24' W 073°35'0 0.0
2016-Aug-10 13:32N 45°24' W 073°35'0 0.0
2016-Aug-10 12:32N 45°24' W 073°35'0 0.0
2016-Aug-10 11:32N 45°24' W 073°35'0 0.0
2016-Aug-10 10:32N 45°24' W 073°35'0 0.0
2016-Aug-10 09:32N 45°24' W 073°35'0 0.0
2016-Aug-10 08:32N 45°24' W 073°35'0 0.0
2016-Aug-10 07:32N 45°24' W 073°35'0 0.0
2016-Aug-10 06:32N 45°24' W 073°35'0 0.0
2016-Aug-10 05:32N 45°24' W 073°35'0 0.0
2016-Aug-10 04:29N 45°24' W 073°35'0 0.0
2016-Aug-10 03:14N 45°24' W 073°35'0 0.0
2016-Aug-10 02:32N 45°24' W 073°35'0 0.0
2016-Aug-10 01:32N 45°24' W 073°35'0 0.0
2016-Aug-10 00:32N 45°24' W 073°35'0 0.0
2016-Aug-09 23:32N 45°24' W 073°35'0 0.0
2016-Aug-09 22:32N 45°24' W 073°35'0 0.0
2016-Aug-09 21:32N 45°24' W 073°35'0 0.0
2016-Aug-09 20:32N 45°24' W 073°35'0 0.0
2016-Aug-09 19:32N 45°24' W 073°35'0 0.0
2016-Aug-09 18:32N 45°24' W 073°35'0 0.0
2016-Aug-09 17:32N 45°24' W 073°35'0 0.0
2016-Aug-09 16:26N 45°24' W 073°35'0 0.0
2016-Aug-09 15:32N 45°24' W 073°35'0 0.0
2016-Aug-09 14:32N 45°24' W 073°35'0 0.0
2016-Aug-09 13:32N 45°24' W 073°35'0 0.0
2016-Aug-09 12:32N 45°24' W 073°35'0 0.0
2016-Aug-09 11:32N 45°24' W 073°35'0 0.0
2016-Aug-09 10:32N 45°24' W 073°35'0 0.0
2016-Aug-09 09:32N 45°24' W 073°35'0 0.0
2016-Aug-09 08:23N 45°24' W 073°35'0 0.0
2016-Aug-09 07:29N 45°24' W 073°35'0 0.0
2016-Aug-09 04:29N 45°24' W 073°35'0 0.0
2016-Aug-09 03:29N 45°24' W 073°35'0 0.0
2016-Aug-09 02:32N 45°24' W 073°35'0 0.0
2016-Aug-09 01:32N 45°24' W 073°35'0 0.0
2016-Aug-09 00:32N 45°24' W 073°35'0 0.0
2016-Aug-08 23:32N 45°24' W 073°35'0 0.0
2016-Aug-08 22:26N 45°24' W 073°35'0 0.0
2016-Aug-08 21:26N 45°24' W 073°35'0 0.0
2016-Aug-08 20:32N 45°24' W 073°35'0 0.0
2016-Aug-08 19:32N 45°24' W 073°35'0 0.0
2016-Aug-08 18:32N 45°24' W 073°35'0 0.0
2016-Aug-08 17:14N 45°24' W 073°35'0 0.0
2016-Aug-08 16:26N 45°24' W 073°35'0 0.0
2016-Aug-08 15:32N 45°24' W 073°35'0 0.0
2016-Aug-08 14:32N 45°24' W 073°35'0 0.0
2016-Aug-08 13:20N 45°24' W 073°35'0 0.0
2016-Aug-08 12:20N 45°24' W 073°35'0 0.0
2016-Aug-08 11:32N 45°24' W 073°35'0 0.0
2016-Aug-08 10:32N 45°24' W 073°35'0 0.0
2016-Aug-08 09:32N 45°24' W 073°35'0 0.0
2016-Aug-08 08:32N 45°24' W 073°35'0 0.0
2016-Aug-08 07:32N 45°24' W 073°35'0 0.0
2016-Aug-08 06:32N 45°24' W 073°35'0 0.0
2016-Aug-08 05:32N 45°24' W 073°35'0 0.0
2016-Aug-08 04:32N 45°24' W 073°35'0 0.0
2016-Aug-08 03:26N 45°24' W 073°35'0 0.0
2016-Aug-08 02:32N 45°24' W 073°35'0 0.0
2016-Aug-08 01:32N 45°24' W 073°35'0 0.0
2016-Aug-08 00:23N 45°24' W 073°35'0 0.0
2016-Aug-07 23:17N 45°24' W 073°35'0 0.0
2016-Aug-07 22:29N 45°24' W 073°35'0 0.0
2016-Aug-07 21:29N 45°24' W 073°35'0 0.0
2016-Aug-07 20:29N 45°24' W 073°35'0 0.0
2016-Aug-07 19:29N 45°24' W 073°35'0 0.0
2016-Aug-07 18:29N 45°24' W 073°35'0 0.0
2016-Aug-07 17:23N 45°24' W 073°35'0 0.0
2016-Aug-07 16:29N 45°24' W 073°35'0 0.0
2016-Aug-07 15:29N 45°24' W 073°35'0 0.0
2016-Aug-07 14:33N 45°24' W 073°35'1 0.9
2016-Aug-07 13:34N 45°24' W 073°34'3 3.2
2016-Aug-07 12:33N 45°26' W 073°30'4 3.6
2016-Aug-07 11:32N 45°30' W 073°31'5 5.2
2016-Aug-07 10:34N 45°35' W 073°30'10 9.7
2016-Aug-07 09:33N 45°44' W 073°25'1010.5
2016-Aug-07 08:33N 45°52' W 073°16'1111.1
2016-Aug-07 07:34N 46°02' W 073°10'1010.3
2016-Aug-07 06:33N 46°08' W 072°57'  

Dump ship's entire track history